Robert C. Seamans — WDA4486 — position and weather

sailwx.info

Track history (hours):
 
Tides and Currents Weather Stations Pressure Air Temp Water Temp Dewpoint Dewpoint Depression Visibility Wind Speed Wind Dir Waves Ship Positions

Oceanographic research ship Robert C. Seamans (USA)

Ship's website: http://www.sea.edu/sea2000/Supporting2000/RobertSeamansIntro.htm

Detailed information on ship capabilities available from University of Delaware's Ocean Information Center.

Owner: Sea Education Association Corporation, Woods Hole, MA. More information available from US FCC via Universal Licensing System and Coast Guard Vessel Documentation Center.

Last reported at 2019-Feb-15 23:15 UTC. Time now 2019-Feb-22 22:49 UTC.
Position S 36°22' E 174°58'.

Type: Sailing vessel. MMSI: 369503000.

Date/timePositionNaut miles runAvg speedWind from/ knotsBaromVisibWave heightAir tempDewpointWater temp
2019-Feb-15 23:15S 36°22' E 174°58'1 4.5
2019-Feb-15 23:00S 36°22' E 174°57'3 1.6
2019-Feb-15 21:24S 36°24' E 174°55'2 4.4
2019-Feb-15 21:00S 36°26' E 174°55'2 4.2
2019-Feb-15 20:31S 36°28' E 174°53'3 6.8
2019-Feb-15 20:00S 36°28' E 174°49'3 5.1
2019-Feb-15 19:28S 36°26' E 174°47'1 0.1
2019-Feb-15 13:37S 36°26' E 174°46'0 0.0
2019-Feb-15 12:13S 36°26' E 174°46'0 0.0
2019-Feb-15 05:14S 36°26' E 174°47'1 3.6
2019-Feb-15 04:51S 36°27' E 174°48'1 1.9
2019-Feb-15 04:30S 36°27' E 174°47'2 3.1
2019-Feb-15 03:43S 36°29' E 174°50'2 7.1
2019-Feb-15 03:30S 36°30' E 174°50'3 5.2
2019-Feb-15 03:00S 36°33' E 174°50'3 5.8
2019-Feb-15 02:30S 36°35' E 174°52'3 6.4
2019-Feb-15 02:00S 36°39' E 174°52'3 6.5
2019-Feb-15 01:30S 36°41' E 174°50'2 4.6
2019-Feb-15 01:00S 36°44' E 174°49'1 2.0
2019-Feb-15 00:30S 36°45' E 174°49'4 5.2
2019-Feb-14 23:40S 36°49' E 174°50'1 5.3
2019-Feb-14 23:31S 36°50' E 174°50'3 5.8
2019-Feb-14 23:00S 36°50' E 174°46'1 1.7
2019-Feb-14 22:31S 36°50' E 174°45'0 0.2
2019-Feb-14 22:01S 36°50' E 174°45'0 0.3
2019-Feb-14 21:30S 36°50' E 174°45'1 1.2
2019-Feb-14 20:54S 36°51' E 174°46'0 0.0
2019-Feb-14 20:30S 36°51' E 174°46'0 0.0
2019-Feb-14 20:00S 36°51' E 174°46'0 0.0
2019-Feb-14 19:27S 36°51' E 174°46'0 0.0
2019-Feb-14 19:00S 36°50' E 174°46'0 0.0
2019-Feb-14 18:30S 36°50' E 174°46'0 0.0
2019-Feb-14 18:00S 36°51' E 174°46'0 0.0
2019-Feb-14 17:30S 36°50' E 174°46'0 0.0
2019-Feb-14 17:00S 36°50' E 174°46'0 0.0
2019-Feb-14 16:30S 36°50' E 174°46'0 0.0
2019-Feb-14 16:00S 36°50' E 174°46'0 0.0
2019-Feb-14 15:30S 36°50' E 174°46'0 0.0
2019-Feb-14 15:00S 36°51' E 174°46'0 0.0
2019-Feb-14 14:27S 36°50' E 174°46'0 0.0
2019-Feb-14 14:00S 36°50' E 174°46'0 0.0
2019-Feb-14 13:30S 36°50' E 174°46'0 0.0
2019-Feb-14 13:00S 36°50' E 174°46'0 0.0
2019-Feb-14 12:28S 36°50' E 174°46'0 0.0
2019-Feb-14 11:58S 36°50' E 174°46'0 0.0
2019-Feb-14 11:28S 36°50' E 174°46'0 0.0
2019-Feb-14 10:58S 36°50' E 174°46'0 0.0
2019-Feb-14 10:28S 36°50' E 174°46'0 0.0
2019-Feb-14 09:58S 36°50' E 174°46'0 0.0
2019-Feb-14 09:28S 36°50' E 174°46'0 0.0
2019-Feb-14 08:58S 36°50' E 174°46'0 0.0
2019-Feb-14 08:28S 36°50' E 174°46'0 0.0
2019-Feb-14 07:58S 36°51' E 174°46'0 0.0
2019-Feb-14 07:25S 36°51' E 174°46'0 0.0
2019-Feb-14 06:55S 36°51' E 174°46'0 0.0
2019-Feb-14 06:27S 36°50' E 174°46'0 0.0
2019-Feb-14 05:59S 36°50' E 174°46'0 0.0
2019-Feb-14 05:29S 36°50' E 174°46'0 0.0
2019-Feb-14 04:53S 36°50' E 174°46'0 0.0
2019-Feb-14 04:29S 36°50' E 174°46'0 0.0
2019-Feb-14 03:56S 36°50' E 174°46'0 0.0
2019-Feb-14 02:59S 36°50' E 174°46'0 0.0
2019-Feb-14 02:29S 36°50' E 174°46'0 0.0
2019-Feb-14 01:56S 36°50' E 174°46'0 0.0
2019-Feb-14 01:20S 36°50' E 174°46'0 0.0
2019-Feb-14 00:59S 36°50' E 174°46'0 0.0
2019-Feb-14 00:26S 36°51' E 174°46'0 0.0
2019-Feb-13 23:59S 36°50' E 174°46'0 0.0
2019-Feb-13 23:29S 36°50' E 174°46'0 0.0
2019-Feb-13 22:50S 36°50' E 174°46'0 0.0
2019-Feb-13 22:29S 36°50' E 174°46'0 0.0
2019-Feb-13 21:59S 36°50' E 174°46'0 0.0
2019-Feb-13 21:29S 36°50' E 174°46'0 0.0
2019-Feb-13 20:59S 36°51' E 174°46'0 0.0
2019-Feb-13 20:29S 36°51' E 174°46'0 0.0
2019-Feb-13 19:53S 36°51' E 174°46'0 0.0
2019-Feb-13 19:29S 36°51' E 174°46'0 0.0
2019-Feb-13 18:56S 36°51' E 174°46'0 0.0
2019-Feb-13 18:29S 36°50' E 174°46'0 0.0
2019-Feb-13 17:59S 36°51' E 174°46'0 0.0
2019-Feb-13 17:29S 36°50' E 174°46'0 0.0
2019-Feb-13 16:59S 36°50' E 174°46'0 0.0
2019-Feb-13 16:29S 36°51' E 174°46'0 0.0
2019-Feb-13 15:59S 36°50' E 174°46'0 0.0
2019-Feb-13 15:29S 36°51' E 174°46'0 0.0
2019-Feb-13 14:59S 36°50' E 174°46'0 0.0
2019-Feb-13 14:23S 36°50' E 174°46'0 0.0
2019-Feb-13 13:53S 36°50' E 174°46'0 0.0
2019-Feb-13 13:29S 36°50' E 174°46'0 0.0
2019-Feb-13 12:35S 36°50' E 174°46'0 0.0
2019-Feb-13 12:17S 36°50' E 174°46'0 0.0
2019-Feb-13 11:51S 36°50' E 174°46'0 0.0
2019-Feb-13 11:30S 36°50' E 174°46'0 0.0
2019-Feb-13 10:56S 36°50' E 174°46'0 0.0
2019-Feb-13 10:27S 36°50' E 174°46'0 0.0
2019-Feb-13 09:57S 36°50' E 174°46'0 0.0
2019-Feb-13 09:29S 36°50' E 174°46'0 0.0
2019-Feb-13 08:56S 36°50' E 174°46'0 0.0
2019-Feb-13 08:30S 36°50' E 174°46'0 0.0
2019-Feb-13 07:56S 36°50' E 174°46'0 0.0
2019-Feb-13 07:29S 36°50' E 174°46'0 0.0
2019-Feb-13 06:59S 36°51' E 174°46'0 0.0
2019-Feb-13 06:30S 36°50' E 174°46'0 0.0
2019-Feb-13 06:00S 36°50' E 174°46'0 0.0
2019-Feb-13 05:30S 36°50' E 174°46'0 0.0
2019-Feb-13 04:57S 36°50' E 174°46'0 0.0
2019-Feb-13 04:30S 36°50' E 174°46'0 0.0
2019-Feb-13 03:42S 36°50' E 174°46'0 0.0
2019-Feb-13 03:30S 36°50' E 174°46'0 0.0
2019-Feb-13 02:24S 36°50' E 174°46'0 0.0
2019-Feb-13 02:00S 36°50' E 174°46'0 0.0
2019-Feb-13 01:28S 36°50' E 174°46'0 0.0
2019-Feb-13 00:56S 36°50' E 174°46'0 0.0
2019-Feb-13 00:27S 36°51' E 174°46'0 0.0
2019-Feb-12 23:45S 36°51' E 174°46'0 0.0
2019-Feb-12 23:27S 36°50' E 174°46'0 0.0
2019-Feb-12 22:51S 36°50' E 174°46'0 0.0
2019-Feb-12 22:30S 36°51' E 174°46'0 0.0
2019-Feb-12 21:57S 36°51' E 174°46'0 0.0
2019-Feb-12 21:27S 36°51' E 174°46'0 0.0
2019-Feb-12 21:00S 36°51' E 174°46'0 0.0
2019-Feb-12 20:30S 36°51' E 174°46'0 0.0
2019-Feb-12 19:54S 36°51' E 174°46'0 0.0
2019-Feb-12 19:30S 36°51' E 174°46'0 0.0
2019-Feb-12 19:00S 36°50' E 174°46'0 0.0
2019-Feb-12 18:30S 36°50' E 174°46'0 0.0
2019-Feb-12 18:00S 36°50' E 174°46'0 0.0
2019-Feb-12 17:24S 36°50' E 174°46'0 0.0
2019-Feb-12 17:00S 36°50' E 174°46'0 0.0
2019-Feb-12 16:21S 36°50' E 174°46'0 0.0
2019-Feb-12 15:57S 36°50' E 174°46'0 0.0
2019-Feb-12 15:27S 36°51' E 174°46'0 0.0
2019-Feb-12 15:00S 36°50' E 174°46'0 0.0
2019-Feb-12 14:27S 36°50' E 174°46'0 0.0
2019-Feb-12 13:48S 36°50' E 174°46'0 0.0
2019-Feb-12 13:27S 36°50' E 174°46'0 0.0
2019-Feb-12 13:00S 36°50' E 174°46'0 0.0
2019-Feb-12 12:27S 36°51' E 174°46'0 0.0
2019-Feb-12 11:57S 36°50' E 174°46'0 0.0
2019-Feb-12 11:21S 36°50' E 174°46'0 0.0
2019-Feb-12 10:57S 36°50' E 174°46'0 0.0
2019-Feb-12 10:27S 36°50' E 174°46'0 0.0
2019-Feb-12 10:00S 36°50' E 174°46'0 0.0
2019-Feb-12 09:21S 36°50' E 174°46'0 0.0
2019-Feb-12 09:00S 36°50' E 174°46'0 0.0
2019-Feb-12 08:27S 36°50' E 174°46'0 0.0
2019-Feb-12 07:57S 36°50' E 174°46'0 0.0
2019-Feb-12 07:30S 36°51' E 174°46'0 0.0
2019-Feb-12 07:00S 36°51' E 174°46'0 0.0
2019-Feb-12 06:29S 36°50' E 174°46'0 0.0
2019-Feb-12 05:59S 36°50' E 174°46'0 0.0
2019-Feb-12 05:29S 36°50' E 174°46'0 0.0
2019-Feb-12 04:59S 36°50' E 174°46'0 0.0
2019-Feb-12 04:30S 36°50' E 174°46'0 0.0
2019-Feb-12 03:57S 36°50' E 174°46'0 0.0
2019-Feb-12 03:24S 36°50' E 174°46'0 0.0
2019-Feb-12 03:00S 36°50' E 174°46'0 0.0
2019-Feb-12 02:21S 36°51' E 174°46'0 0.0
2019-Feb-12 02:00S 36°50' E 174°46'0 0.0
2019-Feb-12 01:27S 36°50' E 174°46'0 0.0
2019-Feb-12 00:59S 36°50' E 174°46'0 0.0
2019-Feb-12 00:26S 36°50' E 174°46'0 0.0
2019-Feb-11 23:56S 36°50' E 174°46'0 0.0
2019-Feb-11 23:29S 36°50' E 174°46'0 0.0
2019-Feb-11 22:50S 36°50' E 174°46'0 0.0
2019-Feb-11 22:23S 36°50' E 174°46'0 0.0
2019-Feb-11 21:56S 36°51' E 174°46'0 0.0
2019-Feb-11 21:08S 36°51' E 174°46'0 0.0
2019-Feb-11 20:56S 36°51' E 174°46'0 0.0
2019-Feb-11 20:29S 36°51' E 174°46'0 0.0
2019-Feb-11 19:56S 36°50' E 174°46'0 0.0
2019-Feb-11 19:29S 36°50' E 174°46'0 0.0
2019-Feb-11 18:53S 36°51' E 174°46'0 0.0
2019-Feb-11 18:23S 36°50' E 174°46'0 0.0
2019-Feb-11 17:56S 36°51' E 174°46'0 0.0
2019-Feb-11 16:50S 36°50' E 174°46'0 0.0
2019-Feb-11 16:20S 36°50' E 174°46'0 0.0
2019-Feb-11 15:50S 36°50' E 174°46'0 0.0
2019-Feb-11 15:29S 36°50' E 174°46'0 0.0
2019-Feb-11 14:59S 36°50' E 174°46'0 0.0
2019-Feb-11 14:26S 36°50' E 174°46'0 0.0
2019-Feb-11 13:56S 36°50' E 174°46'0 0.0
2019-Feb-11 13:26S 36°50' E 174°46'0 0.0
2019-Feb-11 12:56S 36°50' E 174°46'0 0.0
2019-Feb-11 12:26S 36°50' E 174°46'0 0.0
2019-Feb-11 11:44S 36°50' E 174°46'0 0.0
2019-Feb-11 11:26S 36°50' E 174°46'0 0.0
2019-Feb-11 10:56S 36°50' E 174°46'0 0.0
2019-Feb-11 10:20S 36°50' E 174°46'0 0.0
2019-Feb-11 09:56S 36°50' E 174°46'0 0.0
2019-Feb-11 09:20S 36°50' E 174°46'0 0.0
2019-Feb-11 08:56S 36°50' E 174°46'0 0.0
2019-Feb-11 08:02S 36°50' E 174°46'0 0.0
2019-Feb-11 07:59S 36°50' E 174°46'0 0.0
2019-Feb-11 07:29S 36°50' E 174°46'0 0.0
2019-Feb-11 06:50S 36°50' E 174°46'0 0.0
2019-Feb-11 06:18S 36°50' E 174°46'0 0.0
2019-Feb-11 05:58S 36°50' E 174°46'0 0.0
2019-Feb-11 05:22S 36°50' E 174°46'0 0.0
2019-Feb-11 04:58S 36°50' E 174°46'0 0.0
2019-Feb-11 04:27S 36°50' E 174°46'0 0.0
2019-Feb-11 04:00S 36°50' E 174°46'0 0.0
2019-Feb-11 03:30S 36°50' E 174°46'0 0.0
2019-Feb-11 03:00S 36°50' E 174°46'0 0.0
2019-Feb-11 02:30S 36°50' E 174°46'0 0.0
2019-Feb-11 02:00S 36°50' E 174°46'0 0.0
2019-Feb-11 01:30S 36°50' E 174°46'0 0.0
2019-Feb-11 00:59S 36°51' E 174°46'0 0.0
2019-Feb-11 00:28S 36°50' E 174°46'0 0.0
2019-Feb-10 23:58S 36°50' E 174°46'0 0.0
2019-Feb-10 23:28S 36°50' E 174°46'0 0.0
2019-Feb-10 22:58S 36°50' E 174°46'0 0.0
2019-Feb-10 22:28S 36°50' E 174°46'0 0.0
2019-Feb-10 21:58S 36°50' E 174°46'0 0.0
2019-Feb-10 21:28S 36°50' E 174°46'0 0.0
2019-Feb-10 20:55S 36°50' E 174°46'0 0.0
2019-Feb-10 20:28S 36°50' E 174°46'0 0.0
2019-Feb-10 19:58S 36°50' E 174°46'0 0.0
2019-Feb-10 19:25S 36°50' E 174°46'0 0.0
2019-Feb-10 18:55S 36°50' E 174°46'0 0.0
2019-Feb-10 18:28S 36°50' E 174°46'0 0.0
2019-Feb-10 17:58S 36°50' E 174°46'0 0.0
2019-Feb-10 17:28S 36°50' E 174°46'0 0.0
2019-Feb-10 16:46S 36°50' E 174°46'0 0.0
2019-Feb-10 16:28S 36°50' E 174°46'0 0.0
2019-Feb-10 15:58S 36°51' E 174°46'0 0.0
2019-Feb-10 15:28S 36°51' E 174°46'0 0.0
2019-Feb-10 14:55S 36°51' E 174°46'0 0.0
2019-Feb-10 14:25S 36°50' E 174°46'0 0.0
2019-Feb-10 13:58S 36°50' E 174°46'0 0.0
2019-Feb-10 13:28S 36°50' E 174°46'0 0.0
2019-Feb-10 12:55S 36°50' E 174°46'0 0.0
2019-Feb-10 12:25S 36°50' E 174°46'0 0.0
2019-Feb-10 11:58S 36°50' E 174°46'0 0.0
2019-Feb-10 11:28S 36°50' E 174°46'0 0.0
2019-Feb-10 10:55S 36°50' E 174°46'0 0.0
2019-Feb-10 10:28S 36°50' E 174°46'0 0.0
2019-Feb-10 09:55S 36°50' E 174°46'0 0.0
2019-Feb-10 09:25S 36°50' E 174°46'0 0.0
2019-Feb-10 08:58S 36°50' E 174°46'0 0.0
2019-Feb-10 08:28S 36°50' E 174°46'0 0.0
2019-Feb-10 07:58S 36°51' E 174°46'0 0.0
2019-Feb-10 07:19S 36°50' E 174°46'0 0.0
2019-Feb-10 06:55S 36°50' E 174°46'0 0.0
2019-Feb-10 06:26S 36°50' E 174°46'0 0.0
2019-Feb-10 05:59S 36°50' E 174°46'0 0.0
2019-Feb-10 05:26S 36°50' E 174°46'0 0.0
2019-Feb-10 04:59S 36°50' E 174°46'0 0.0
2019-Feb-10 04:29S 36°50' E 174°46'0 0.0
2019-Feb-10 03:59S 36°50' E 174°46'0 0.0
2019-Feb-10 03:26S 36°51' E 174°46'0 0.0
2019-Feb-10 02:56S 36°50' E 174°46'0 0.0
2019-Feb-10 02:29S 36°50' E 174°46'0 0.0
2019-Feb-10 01:59S 36°50' E 174°46'0 0.0
2019-Feb-10 01:26S 36°50' E 174°46'0 0.0
2019-Feb-10 00:57S 36°50' E 174°46'0 0.0
2019-Feb-10 00:30S 36°50' E 174°46'0 0.0
2019-Feb-10 00:00S 36°50' E 174°46'0 0.0
2019-Feb-09 23:30S 36°50' E 174°46'0 0.0
2019-Feb-09 23:00S 36°50' E 174°46'0 0.0
2019-Feb-09 22:21S 36°51' E 174°46'0 0.0
2019-Feb-09 22:00S 36°50' E 174°46'0 0.0
2019-Feb-09 21:30S 36°50' E 174°46'0 0.0
2019-Feb-09 21:00S 36°51' E 174°46'0 0.0
2019-Feb-09 20:30S 36°50' E 174°46'0 0.0
2019-Feb-09 19:57S 36°50' E 174°46'0 0.0
2019-Feb-09 19:30S 36°50' E 174°46'0 0.0
2019-Feb-09 19:00S 36°50' E 174°46'0 0.0
2019-Feb-09 18:30S 36°51' E 174°46'0 0.0
2019-Feb-09 18:00S 36°50' E 174°46'0 0.0
2019-Feb-09 17:24S 36°50' E 174°46'0 0.0
2019-Feb-09 16:54S 36°50' E 174°46'0 0.0
2019-Feb-09 16:24S 36°50' E 174°46'0 0.0
2019-Feb-09 16:00S 36°51' E 174°46'0 0.0
2019-Feb-09 14:24S 36°50' E 174°46'0 0.0
2019-Feb-09 13:39S 36°50' E 174°46'0 0.0
2019-Feb-09 13:24S 36°50' E 174°46'0 0.0
2019-Feb-09 12:54S 36°50' E 174°46'0 0.0
2019-Feb-09 12:30S 36°50' E 174°46'0 0.0
2019-Feb-09 11:36S 36°50' E 174°46'0 0.0
2019-Feb-09 11:24S 36°50' E 174°46'0 0.0
2019-Feb-09 11:00S 36°50' E 174°46'0 0.0
2019-Feb-09 10:18S 36°50' E 174°46'0 0.0
2019-Feb-09 10:00S 36°50' E 174°46'0 0.0
2019-Feb-09 09:09S 36°50' E 174°46'0 0.0
2019-Feb-09 08:30S 36°50' E 174°46'0 0.0
2019-Feb-09 08:00S 36°50' E 174°46'0 0.0
2019-Feb-09 07:24S 36°50' E 174°46'0 0.0
2019-Feb-09 06:42S 36°50' E 174°46'0 0.0
2019-Feb-09 06:27S 36°50' E 174°46'0 0.0
2019-Feb-09 05:54S 36°50' E 174°46'0 0.0
2019-Feb-09 05:09S 36°50' E 174°46'0 0.0
2019-Feb-09 04:55S 36°50' E 174°46'0 0.0
2019-Feb-09 04:16S 36°50' E 174°46'0 0.0
2019-Feb-09 03:58S 36°50' E 174°46'0 0.0
2019-Feb-09 03:19S 36°50' E 174°46'0 0.0
2019-Feb-09 02:55S 36°50' E 174°46'0 0.0
2019-Feb-09 02:22S 36°50' E 174°46'0 0.0
2019-Feb-09 01:58S 36°50' E 174°46'0 0.0
2019-Feb-09 01:25S 36°50' E 174°46'0 0.0
2019-Feb-09 00:39S 36°50' E 174°46'0 0.0
2019-Feb-08 23:57S 36°50' E 174°46'0 0.0
2019-Feb-08 23:30S 36°50' E 174°46'0 0.0
2019-Feb-08 23:00S 36°50' E 174°46'0 0.0
2019-Feb-08 22:30S 36°50' E 174°46'0 0.0
2019-Feb-08 22:00S 36°50' E 174°46'0 0.0
2019-Feb-08 21:24S 36°50' E 174°46'0 0.0
2019-Feb-08 20:57S 36°50' E 174°46'0 0.0
2019-Feb-08 20:30S 36°50' E 174°46'0 0.0
2019-Feb-08 20:00S 36°50' E 174°46'0 0.0
2019-Feb-08 19:27S 36°50' E 174°46'0 0.0
2019-Feb-08 18:45S 36°50' E 174°46'0 0.0
2019-Feb-08 18:27S 36°51' E 174°46'0 0.0
2019-Feb-08 17:57S 36°51' E 174°46'0 0.0
2019-Feb-08 17:30S 36°50' E 174°46'0 0.0
2019-Feb-08 17:00S 36°50' E 174°46'0 0.0
2019-Feb-08 16:30S 36°50' E 174°46'0 0.0
2019-Feb-08 16:00S 36°51' E 174°46'0 0.0
2019-Feb-08 15:21S 36°50' E 174°46'0 0.0
2019-Feb-08 14:57S 36°50' E 174°46'0 0.0
2019-Feb-08 14:21S 36°50' E 174°46'0 0.0
2019-Feb-08 13:57S 36°50' E 174°46'0 0.0
2019-Feb-08 13:27S 36°50' E 174°46'0 0.0
2019-Feb-08 13:00S 36°50' E 174°46'0 0.0
2019-Feb-08 12:27S 36°50' E 174°46'0 0.0
2019-Feb-08 11:57S 36°50' E 174°46'0 0.0
2019-Feb-08 11:30S 36°50' E 174°46'0 0.0
2019-Feb-08 11:00S 36°50' E 174°46'0 0.0
2019-Feb-08 10:30S 36°50' E 174°46'0 0.0
2019-Feb-08 09:57S 36°50' E 174°46'0 0.0
2019-Feb-08 09:15S 36°50' E 174°46'0 0.0
2019-Feb-08 08:57S 36°50' E 174°46'0 0.0
2019-Feb-08 08:30S 36°50' E 174°46'0 0.0
2019-Feb-08 07:57S 36°51' E 174°46'0 0.0
2019-Feb-08 07:27S 36°50' E 174°46'0 0.0
2019-Feb-08 07:00S 36°51' E 174°46'0 0.0
2019-Feb-08 06:30S 36°50' E 174°46'0 0.0
2019-Feb-08 05:57S 36°50' E 174°46'0 0.0
2019-Feb-08 05:27S 36°50' E 174°46'0 0.0
2019-Feb-08 05:00S 36°50' E 174°46'0 0.0
2019-Feb-08 04:28S 36°50' E 174°46'0 0.0
2019-Feb-08 03:55S 36°50' E 174°46'0 0.0
2019-Feb-08 03:28S 36°50' E 174°46'0 0.0
2019-Feb-08 02:58S 36°50' E 174°46'0 0.0
2019-Feb-08 02:28S 36°50' E 174°46'0 0.0
2019-Feb-08 01:59S 36°50' E 174°46'0 0.0
2019-Feb-08 01:21S 36°50' E 174°46'0 0.0
2019-Feb-08 01:00S 36°50' E 174°46'0 0.0
2019-Feb-08 00:30S 36°50' E 174°46'0 0.0
2019-Feb-07 23:54S 36°50' E 174°46'0 0.0
2019-Feb-07 23:27S 36°50' E 174°46'0 0.0
2019-Feb-07 22:48S 36°50' E 174°46'0 0.0
2019-Feb-07 22:30S 36°50' E 174°46'0 0.0
2019-Feb-07 22:00S 36°50' E 174°46'0 0.0
2019-Feb-07 21:30S 36°50' E 174°46'0 0.0
2019-Feb-07 21:00S 36°50' E 174°46'0 0.0
2019-Feb-07 20:27S 36°50' E 174°46'0 0.0
2019-Feb-07 19:57S 36°50' E 174°46'0 0.0
2019-Feb-07 19:27S 36°50' E 174°46'0 0.0
2019-Feb-07 19:00S 36°50' E 174°46'0 0.0
2019-Feb-07 18:30S 36°51' E 174°46'0 0.0
2019-Feb-07 17:57S 36°50' E 174°46'0 0.0
2019-Feb-07 17:30S 36°50' E 174°46'0 0.0
2019-Feb-07 17:00S 36°50' E 174°46'0 0.0
2019-Feb-07 16:30S 36°50' E 174°46'0 0.0
2019-Feb-07 16:00S 36°51' E 174°46'0 0.0
2019-Feb-07 15:27S 36°50' E 174°46'0 0.0
2019-Feb-07 15:00S 36°50' E 174°46'0 0.0
2019-Feb-07 14:30S 36°50' E 174°46'0 0.0
2019-Feb-07 14:00S 36°50' E 174°46'0 0.0
2019-Feb-07 13:30S 36°50' E 174°46'0 0.0
2019-Feb-07 12:57S 36°50' E 174°46'0 0.0
2019-Feb-07 12:30S 36°50' E 174°46'0 0.0
2019-Feb-07 11:57S 36°50' E 174°46'0 0.0
2019-Feb-07 11:30S 36°50' E 174°46'0 0.0
2019-Feb-07 11:00S 36°50' E 174°46'0 0.0
2019-Feb-07 10:27S 36°50' E 174°46'0 0.0
2019-Feb-07 10:00S 36°50' E 174°46'0 0.0
2019-Feb-07 09:30S 36°50' E 174°46'0 0.0
2019-Feb-07 09:00S 36°50' E 174°46'0 0.0
2019-Feb-07 08:27S 36°50' E 174°46'0 0.0
2019-Feb-07 07:51S 36°51' E 174°46'0 0.0
2019-Feb-07 07:21S 36°51' E 174°46'0 0.0
2019-Feb-07 06:57S 36°51' E 174°46'0 0.0
2019-Feb-07 06:14S 36°50' E 174°46'0 0.0
2019-Feb-07 05:54S 36°50' E 174°46'0 0.0
2019-Feb-07 05:27S 36°50' E 174°46'0 0.0
2019-Feb-07 05:00S 36°50' E 174°46'0 0.0
2019-Feb-07 04:22S 36°50' E 174°46'0 0.0
2019-Feb-07 03:58S 36°50' E 174°46'0 0.0
2019-Feb-07 03:28S 36°50' E 174°46'0 0.0
2019-Feb-07 02:58S 36°50' E 174°46'0 0.0
2019-Feb-07 02:28S 36°50' E 174°46'0 0.0
2019-Feb-07 01:59S 36°50' E 174°46'0 0.0
2019-Feb-07 01:29S 36°50' E 174°46'0 0.0
2019-Feb-07 00:58S 36°50' E 174°46'0 0.0
2019-Feb-07 00:28S 36°50' E 174°46'0 0.0
2019-Feb-06 23:58S 36°50' E 174°46'0 0.0
2019-Feb-06 23:22S 36°50' E 174°46'0 0.0
2019-Feb-06 22:58S 36°51' E 174°46'0 0.0
2019-Feb-06 22:28S 36°50' E 174°46'0 0.0
2019-Feb-06 21:58S 36°50' E 174°46'0 0.0
2019-Feb-06 21:19S 36°50' E 174°46'0 0.0
2019-Feb-06 20:58S 36°50' E 174°46'0 0.0
2019-Feb-06 20:28S 36°50' E 174°46'0 0.0
2019-Feb-06 19:58S 36°50' E 174°46'0 0.0
2019-Feb-06 19:28S 36°50' E 174°46'0 0.0
2019-Feb-06 18:58S 36°51' E 174°46'0 0.0
2019-Feb-06 18:25S 36°51' E 174°46'0 0.0
2019-Feb-06 17:58S 36°50' E 174°46'0 0.0
2019-Feb-06 17:28S 36°51' E 174°46'0 0.0
2019-Feb-06 16:58S 36°50' E 174°46'0 0.0
2019-Feb-06 16:28S 36°50' E 174°46'0 0.0
2019-Feb-06 15:55S 36°51' E 174°46'0 0.0
2019-Feb-06 15:28S 36°50' E 174°46'0 0.0
2019-Feb-06 14:58S 36°50' E 174°46'0 0.0
2019-Feb-06 14:25S 36°50' E 174°46'0 0.0
2019-Feb-06 13:58S 36°50' E 174°46'0 0.0
2019-Feb-06 13:25S 36°50' E 174°46'0 0.0
2019-Feb-06 12:55S 36°50' E 174°46'0 0.0
2019-Feb-06 12:25S 36°50' E 174°46'0 0.0
2019-Feb-06 11:58S 36°50' E 174°46'0 0.0
2019-Feb-06 11:28S 36°51' E 174°46'0 0.0
2019-Feb-06 10:58S 36°50' E 174°46'0 0.0
2019-Feb-06 10:28S 36°50' E 174°46'0 0.0
2019-Feb-06 09:58S 36°50' E 174°46'0 0.0
2019-Feb-06 09:28S 36°50' E 174°46'0 0.0
2019-Feb-06 08:55S 36°50' E 174°46'0 0.0
2019-Feb-06 08:28S 36°50' E 174°46'0 0.0
2019-Feb-06 07:55S 36°50' E 174°46'0 0.0
2019-Feb-06 07:28S 36°50' E 174°46'0 0.1
2019-Feb-06 07:00S 36°50' E 174°46'2 4.1
2019-Feb-06 06:30S 36°50' E 174°48'3 6.0
2019-Feb-06 06:00S 36°47' E 174°48'4 7.7
2019-Feb-06 05:30S 36°43' E 174°50'4 7.6
2019-Feb-06 05:00S 36°40' E 174°51'3 7.0
2019-Feb-06 04:30S 36°36' E 174°52'4 7.2
2019-Feb-06 04:00S 36°33' E 174°52'4 8.2
2019-Feb-06 03:30S 36°29' E 174°54'4 8.4
2019-Feb-06 03:00S 36°25' E 174°55'4 8.1
2019-Feb-06 02:30S 36°21' E 174°55'  
Track history (hours):
 
Tides and Currents Weather Stations Pressure Air Temp Water Temp Dewpoint Dewpoint Depression Visibility Wind Speed Wind Dir Waves Ship Positions

Oceanographic research ship Robert C. Seamans (USA)

Ship's website: http://www.sea.edu/sea2000/Supporting2000/RobertSeamansIntro.htm

Detailed information on ship capabilities available from University of Delaware's Ocean Information Center.

Owner: Sea Education Association Corporation, Woods Hole, MA. More information available from US FCC via Universal Licensing System and Coast Guard Vessel Documentation Center.

Last reported at 2019-Feb-15 23:15 UTC. Time now 2019-Feb-22 22:49 UTC.
Position S 36°22' E 174°58'.

Type: Sailing vessel. MMSI: 369503000.

Date/timePositionNaut miles runAvg speedWind from/ knotsBaromVisibWave heightAir tempDewpointWater temp
2019-Feb-15 23:15S 36°22' E 174°58'1 4.5
2019-Feb-15 23:00S 36°22' E 174°57'3 1.6
2019-Feb-15 21:24S 36°24' E 174°55'2 4.4
2019-Feb-15 21:00S 36°26' E 174°55'2 4.2
2019-Feb-15 20:31S 36°28' E 174°53'3 6.8
2019-Feb-15 20:00S 36°28' E 174°49'3 5.1
2019-Feb-15 19:28S 36°26' E 174°47'1 0.1
2019-Feb-15 13:37S 36°26' E 174°46'0 0.0
2019-Feb-15 12:13S 36°26' E 174°46'0 0.0
2019-Feb-15 05:14S 36°26' E 174°47'1 3.6
2019-Feb-15 04:51S 36°27' E 174°48'1 1.9
2019-Feb-15 04:30S 36°27' E 174°47'2 3.1
2019-Feb-15 03:43S 36°29' E 174°50'2 7.1
2019-Feb-15 03:30S 36°30' E 174°50'3 5.2
2019-Feb-15 03:00S 36°33' E 174°50'3 5.8
2019-Feb-15 02:30S 36°35' E 174°52'3 6.4
2019-Feb-15 02:00S 36°39' E 174°52'3 6.5
2019-Feb-15 01:30S 36°41' E 174°50'2 4.6
2019-Feb-15 01:00S 36°44' E 174°49'1 2.0
2019-Feb-15 00:30S 36°45' E 174°49'4 5.2
2019-Feb-14 23:40S 36°49' E 174°50'1 5.3
2019-Feb-14 23:31S 36°50' E 174°50'3 5.8
2019-Feb-14 23:00S 36°50' E 174°46'1 1.7
2019-Feb-14 22:31S 36°50' E 174°45'0 0.2
2019-Feb-14 22:01S 36°50' E 174°45'0 0.3
2019-Feb-14 21:30S 36°50' E 174°45'1 1.2
2019-Feb-14 20:54S 36°51' E 174°46'0 0.0
2019-Feb-14 20:30S 36°51' E 174°46'0 0.0
2019-Feb-14 20:00S 36°51' E 174°46'0 0.0
2019-Feb-14 19:27S 36°51' E 174°46'0 0.0
2019-Feb-14 19:00S 36°50' E 174°46'0 0.0
2019-Feb-14 18:30S 36°50' E 174°46'0 0.0
2019-Feb-14 18:00S 36°51' E 174°46'0 0.0
2019-Feb-14 17:30S 36°50' E 174°46'0 0.0
2019-Feb-14 17:00S 36°50' E 174°46'0 0.0
2019-Feb-14 16:30S 36°50' E 174°46'0 0.0
2019-Feb-14 16:00S 36°50' E 174°46'0 0.0
2019-Feb-14 15:30S 36°50' E 174°46'0 0.0
2019-Feb-14 15:00S 36°51' E 174°46'0 0.0
2019-Feb-14 14:27S 36°50' E 174°46'0 0.0
2019-Feb-14 14:00S 36°50' E 174°46'0 0.0
2019-Feb-14 13:30S 36°50' E 174°46'0 0.0
2019-Feb-14 13:00S 36°50' E 174°46'0 0.0
2019-Feb-14 12:28S 36°50' E 174°46'0 0.0
2019-Feb-14 11:58S 36°50' E 174°46'0 0.0
2019-Feb-14 11:28S 36°50' E 174°46'0 0.0
2019-Feb-14 10:58S 36°50' E 174°46'0 0.0
2019-Feb-14 10:28S 36°50' E 174°46'0 0.0
2019-Feb-14 09:58S 36°50' E 174°46'0 0.0
2019-Feb-14 09:28S 36°50' E 174°46'0 0.0
2019-Feb-14 08:58S 36°50' E 174°46'0 0.0
2019-Feb-14 08:28S 36°50' E 174°46'0 0.0
2019-Feb-14 07:58S 36°51' E 174°46'0 0.0
2019-Feb-14 07:25S 36°51' E 174°46'0 0.0
2019-Feb-14 06:55S 36°51' E 174°46'0 0.0
2019-Feb-14 06:27S 36°50' E 174°46'0 0.0
2019-Feb-14 05:59S 36°50' E 174°46'0 0.0
2019-Feb-14 05:29S 36°50' E 174°46'0 0.0
2019-Feb-14 04:53S 36°50' E 174°46'0 0.0
2019-Feb-14 04:29S 36°50' E 174°46'0 0.0
2019-Feb-14 03:56S 36°50' E 174°46'0 0.0
2019-Feb-14 02:59S 36°50' E 174°46'0 0.0
2019-Feb-14 02:29S 36°50' E 174°46'0 0.0
2019-Feb-14 01:56S 36°50' E 174°46'0 0.0
2019-Feb-14 01:20S 36°50' E 174°46'0 0.0
2019-Feb-14 00:59S 36°50' E 174°46'0 0.0
2019-Feb-14 00:26S 36°51' E 174°46'0 0.0
2019-Feb-13 23:59S 36°50' E 174°46'0 0.0
2019-Feb-13 23:29S 36°50' E 174°46'0 0.0
2019-Feb-13 22:50S 36°50' E 174°46'0 0.0
2019-Feb-13 22:29S 36°50' E 174°46'0 0.0
2019-Feb-13 21:59S 36°50' E 174°46'0 0.0
2019-Feb-13 21:29S 36°50' E 174°46'0 0.0
2019-Feb-13 20:59S 36°51' E 174°46'0 0.0
2019-Feb-13 20:29S 36°51' E 174°46'0 0.0
2019-Feb-13 19:53S 36°51' E 174°46'0 0.0
2019-Feb-13 19:29S 36°51' E 174°46'0 0.0
2019-Feb-13 18:56S 36°51' E 174°46'0 0.0
2019-Feb-13 18:29S 36°50' E 174°46'0 0.0
2019-Feb-13 17:59S 36°51' E 174°46'0 0.0
2019-Feb-13 17:29S 36°50' E 174°46'0 0.0
2019-Feb-13 16:59S 36°50' E 174°46'0 0.0
2019-Feb-13 16:29S 36°51' E 174°46'0 0.0
2019-Feb-13 15:59S 36°50' E 174°46'0 0.0
2019-Feb-13 15:29S 36°51' E 174°46'0 0.0
2019-Feb-13 14:59S 36°50' E 174°46'0 0.0
2019-Feb-13 14:23S 36°50' E 174°46'0 0.0
2019-Feb-13 13:53S 36°50' E 174°46'0 0.0
2019-Feb-13 13:29S 36°50' E 174°46'0 0.0
2019-Feb-13 12:35S 36°50' E 174°46'0 0.0
2019-Feb-13 12:17S 36°50' E 174°46'0 0.0
2019-Feb-13 11:51S 36°50' E 174°46'0 0.0
2019-Feb-13 11:30S 36°50' E 174°46'0 0.0
2019-Feb-13 10:56S 36°50' E 174°46'0 0.0
2019-Feb-13 10:27S 36°50' E 174°46'0 0.0
2019-Feb-13 09:57S 36°50' E 174°46'0 0.0
2019-Feb-13 09:29S 36°50' E 174°46'0 0.0
2019-Feb-13 08:56S 36°50' E 174°46'0 0.0
2019-Feb-13 08:30S 36°50' E 174°46'0 0.0
2019-Feb-13 07:56S 36°50' E 174°46'0 0.0
2019-Feb-13 07:29S 36°50' E 174°46'0 0.0
2019-Feb-13 06:59S 36°51' E 174°46'0 0.0
2019-Feb-13 06:30S 36°50' E 174°46'0 0.0
2019-Feb-13 06:00S 36°50' E 174°46'0 0.0
2019-Feb-13 05:30S 36°50' E 174°46'0 0.0
2019-Feb-13 04:57S 36°50' E 174°46'0 0.0
2019-Feb-13 04:30S 36°50' E 174°46'0 0.0
2019-Feb-13 03:42S 36°50' E 174°46'0 0.0
2019-Feb-13 03:30S 36°50' E 174°46'0 0.0
2019-Feb-13 02:24S 36°50' E 174°46'0 0.0
2019-Feb-13 02:00S 36°50' E 174°46'0 0.0
2019-Feb-13 01:28S 36°50' E 174°46'0 0.0
2019-Feb-13 00:56S 36°50' E 174°46'0 0.0
2019-Feb-13 00:27S 36°51' E 174°46'0 0.0
2019-Feb-12 23:45S 36°51' E 174°46'0 0.0
2019-Feb-12 23:27S 36°50' E 174°46'0 0.0
2019-Feb-12 22:51S 36°50' E 174°46'0 0.0
2019-Feb-12 22:30S 36°51' E 174°46'0 0.0
2019-Feb-12 21:57S 36°51' E 174°46'0 0.0
2019-Feb-12 21:27S 36°51' E 174°46'0 0.0
2019-Feb-12 21:00S 36°51' E 174°46'0 0.0
2019-Feb-12 20:30S 36°51' E 174°46'0 0.0
2019-Feb-12 19:54S 36°51' E 174°46'0 0.0
2019-Feb-12 19:30S 36°51' E 174°46'0 0.0
2019-Feb-12 19:00S 36°50' E 174°46'0 0.0
2019-Feb-12 18:30S 36°50' E 174°46'0 0.0
2019-Feb-12 18:00S 36°50' E 174°46'0 0.0
2019-Feb-12 17:24S 36°50' E 174°46'0 0.0
2019-Feb-12 17:00S 36°50' E 174°46'0 0.0
2019-Feb-12 16:21S 36°50' E 174°46'0 0.0
2019-Feb-12 15:57S 36°50' E 174°46'0 0.0
2019-Feb-12 15:27S 36°51' E 174°46'0 0.0
2019-Feb-12 15:00S 36°50' E 174°46'0 0.0
2019-Feb-12 14:27S 36°50' E 174°46'0 0.0
2019-Feb-12 13:48S 36°50' E 174°46'0 0.0
2019-Feb-12 13:27S 36°50' E 174°46'0 0.0
2019-Feb-12 13:00S 36°50' E 174°46'0 0.0
2019-Feb-12 12:27S 36°51' E 174°46'0 0.0
2019-Feb-12 11:57S 36°50' E 174°46'0 0.0
2019-Feb-12 11:21S 36°50' E 174°46'0 0.0
2019-Feb-12 10:57S 36°50' E 174°46'0 0.0
2019-Feb-12 10:27S 36°50' E 174°46'0 0.0
2019-Feb-12 10:00S 36°50' E 174°46'0 0.0
2019-Feb-12 09:21S 36°50' E 174°46'0 0.0
2019-Feb-12 09:00S 36°50' E 174°46'0 0.0
2019-Feb-12 08:27S 36°50' E 174°46'0 0.0
2019-Feb-12 07:57S 36°50' E 174°46'0 0.0
2019-Feb-12 07:30S 36°51' E 174°46'0 0.0
2019-Feb-12 07:00S 36°51' E 174°46'0 0.0
2019-Feb-12 06:29S 36°50' E 174°46'0 0.0
2019-Feb-12 05:59S 36°50' E 174°46'0 0.0
2019-Feb-12 05:29S 36°50' E 174°46'0 0.0
2019-Feb-12 04:59S 36°50' E 174°46'0 0.0
2019-Feb-12 04:30S 36°50' E 174°46'0 0.0
2019-Feb-12 03:57S 36°50' E 174°46'0 0.0
2019-Feb-12 03:24S 36°50' E 174°46'0 0.0
2019-Feb-12 03:00S 36°50' E 174°46'0 0.0
2019-Feb-12 02:21S 36°51' E 174°46'0 0.0
2019-Feb-12 02:00S 36°50' E 174°46'0 0.0
2019-Feb-12 01:27S 36°50' E 174°46'0 0.0
2019-Feb-12 00:59S 36°50' E 174°46'0 0.0
2019-Feb-12 00:26S 36°50' E 174°46'0 0.0
2019-Feb-11 23:56S 36°50' E 174°46'0 0.0
2019-Feb-11 23:29S 36°50' E 174°46'0 0.0
2019-Feb-11 22:50S 36°50' E 174°46'0 0.0
2019-Feb-11 22:23S 36°50' E 174°46'0 0.0
2019-Feb-11 21:56S 36°51' E 174°46'0 0.0
2019-Feb-11 21:08S 36°51' E 174°46'0 0.0
2019-Feb-11 20:56S 36°51' E 174°46'0 0.0
2019-Feb-11 20:29S 36°51' E 174°46'0 0.0
2019-Feb-11 19:56S 36°50' E 174°46'0 0.0
2019-Feb-11 19:29S 36°50' E 174°46'0 0.0
2019-Feb-11 18:53S 36°51' E 174°46'0 0.0
2019-Feb-11 18:23S 36°50' E 174°46'0 0.0
2019-Feb-11 17:56S 36°51' E 174°46'0 0.0
2019-Feb-11 16:50S 36°50' E 174°46'0 0.0
2019-Feb-11 16:20S 36°50' E 174°46'0 0.0
2019-Feb-11 15:50S 36°50' E 174°46'0 0.0
2019-Feb-11 15:29S 36°50' E 174°46'0 0.0
2019-Feb-11 14:59S 36°50' E 174°46'0 0.0
2019-Feb-11 14:26S 36°50' E 174°46'0 0.0
2019-Feb-11 13:56S 36°50' E 174°46'0 0.0
2019-Feb-11 13:26S 36°50' E 174°46'0 0.0
2019-Feb-11 12:56S 36°50' E 174°46'0 0.0
2019-Feb-11 12:26S 36°50' E 174°46'0 0.0
2019-Feb-11 11:44S 36°50' E 174°46'0 0.0
2019-Feb-11 11:26S 36°50' E 174°46'0 0.0
2019-Feb-11 10:56S 36°50' E 174°46'0 0.0
2019-Feb-11 10:20S 36°50' E 174°46'0 0.0
2019-Feb-11 09:56S 36°50' E 174°46'0 0.0
2019-Feb-11 09:20S 36°50' E 174°46'0 0.0
2019-Feb-11 08:56S 36°50' E 174°46'0 0.0
2019-Feb-11 08:02S 36°50' E 174°46'0 0.0
2019-Feb-11 07:59S 36°50' E 174°46'0 0.0
2019-Feb-11 07:29S 36°50' E 174°46'0 0.0
2019-Feb-11 06:50S 36°50' E 174°46'0 0.0
2019-Feb-11 06:18S 36°50' E 174°46'0 0.0
2019-Feb-11 05:58S 36°50' E 174°46'0 0.0
2019-Feb-11 05:22S 36°50' E 174°46'0 0.0
2019-Feb-11 04:58S 36°50' E 174°46'0 0.0
2019-Feb-11 04:27S 36°50' E 174°46'0 0.0
2019-Feb-11 04:00S 36°50' E 174°46'0 0.0
2019-Feb-11 03:30S 36°50' E 174°46'0 0.0
2019-Feb-11 03:00S 36°50' E 174°46'0 0.0
2019-Feb-11 02:30S 36°50' E 174°46'0 0.0
2019-Feb-11 02:00S 36°50' E 174°46'0 0.0
2019-Feb-11 01:30S 36°50' E 174°46'0 0.0
2019-Feb-11 00:59S 36°51' E 174°46'0 0.0
2019-Feb-11 00:28S 36°50' E 174°46'0 0.0
2019-Feb-10 23:58S 36°50' E 174°46'0 0.0
2019-Feb-10 23:28S 36°50' E 174°46'0 0.0
2019-Feb-10 22:58S 36°50' E 174°46'0 0.0
2019-Feb-10 22:28S 36°50' E 174°46'0 0.0
2019-Feb-10 21:58S 36°50' E 174°46'0 0.0
2019-Feb-10 21:28S 36°50' E 174°46'0 0.0
2019-Feb-10 20:55S 36°50' E 174°46'0 0.0
2019-Feb-10 20:28S 36°50' E 174°46'0 0.0
2019-Feb-10 19:58S 36°50' E 174°46'0 0.0
2019-Feb-10 19:25S 36°50' E 174°46'0 0.0
2019-Feb-10 18:55S 36°50' E 174°46'0 0.0
2019-Feb-10 18:28S 36°50' E 174°46'0 0.0
2019-Feb-10 17:58S 36°50' E 174°46'0 0.0
2019-Feb-10 17:28S 36°50' E 174°46'0 0.0
2019-Feb-10 16:46S 36°50' E 174°46'0 0.0
2019-Feb-10 16:28S 36°50' E 174°46'0 0.0
2019-Feb-10 15:58S 36°51' E 174°46'0 0.0
2019-Feb-10 15:28S 36°51' E 174°46'0 0.0
2019-Feb-10 14:55S 36°51' E 174°46'0 0.0
2019-Feb-10 14:25S 36°50' E 174°46'0 0.0
2019-Feb-10 13:58S 36°50' E 174°46'0 0.0
2019-Feb-10 13:28S 36°50' E 174°46'0 0.0
2019-Feb-10 12:55S 36°50' E 174°46'0 0.0
2019-Feb-10 12:25S 36°50' E 174°46'0 0.0
2019-Feb-10 11:58S 36°50' E 174°46'0 0.0
2019-Feb-10 11:28S 36°50' E 174°46'0 0.0
2019-Feb-10 10:55S 36°50' E 174°46'0 0.0
2019-Feb-10 10:28S 36°50' E 174°46'0 0.0
2019-Feb-10 09:55S 36°50' E 174°46'0 0.0
2019-Feb-10 09:25S 36°50' E 174°46'0 0.0
2019-Feb-10 08:58S 36°50' E 174°46'0 0.0
2019-Feb-10 08:28S 36°50' E 174°46'0 0.0
2019-Feb-10 07:58S 36°51' E 174°46'0 0.0
2019-Feb-10 07:19S 36°50' E 174°46'0 0.0
2019-Feb-10 06:55S 36°50' E 174°46'0 0.0
2019-Feb-10 06:26S 36°50' E 174°46'0 0.0
2019-Feb-10 05:59S 36°50' E 174°46'0 0.0
2019-Feb-10 05:26S 36°50' E 174°46'0 0.0
2019-Feb-10 04:59S 36°50' E 174°46'0 0.0
2019-Feb-10 04:29S 36°50' E 174°46'0 0.0
2019-Feb-10 03:59S 36°50' E 174°46'0 0.0
2019-Feb-10 03:26S 36°51' E 174°46'0 0.0
2019-Feb-10 02:56S 36°50' E 174°46'0 0.0
2019-Feb-10 02:29S 36°50' E 174°46'0 0.0
2019-Feb-10 01:59S 36°50' E 174°46'0 0.0
2019-Feb-10 01:26S 36°50' E 174°46'0 0.0
2019-Feb-10 00:57S 36°50' E 174°46'0 0.0
2019-Feb-10 00:30S 36°50' E 174°46'0 0.0
2019-Feb-10 00:00S 36°50' E 174°46'0 0.0
2019-Feb-09 23:30S 36°50' E 174°46'0 0.0
2019-Feb-09 23:00S 36°50' E 174°46'0 0.0
2019-Feb-09 22:21S 36°51' E 174°46'0 0.0
2019-Feb-09 22:00S 36°50' E 174°46'0 0.0
2019-Feb-09 21:30S 36°50' E 174°46'0 0.0
2019-Feb-09 21:00S 36°51' E 174°46'0 0.0
2019-Feb-09 20:30S 36°50' E 174°46'0 0.0
2019-Feb-09 19:57S 36°50' E 174°46'0 0.0
2019-Feb-09 19:30S 36°50' E 174°46'0 0.0
2019-Feb-09 19:00S 36°50' E 174°46'0 0.0
2019-Feb-09 18:30S 36°51' E 174°46'0 0.0
2019-Feb-09 18:00S 36°50' E 174°46'0 0.0
2019-Feb-09 17:24S 36°50' E 174°46'0 0.0
2019-Feb-09 16:54S 36°50' E 174°46'0 0.0
2019-Feb-09 16:24S 36°50' E 174°46'0 0.0
2019-Feb-09 16:00S 36°51' E 174°46'0 0.0
2019-Feb-09 14:24S 36°50' E 174°46'0 0.0
2019-Feb-09 13:39S 36°50' E 174°46'0 0.0
2019-Feb-09 13:24S 36°50' E 174°46'0 0.0
2019-Feb-09 12:54S 36°50' E 174°46'0 0.0
2019-Feb-09 12:30S 36°50' E 174°46'0 0.0
2019-Feb-09 11:36S 36°50' E 174°46'0 0.0
2019-Feb-09 11:24S 36°50' E 174°46'0 0.0
2019-Feb-09 11:00S 36°50' E 174°46'0 0.0
2019-Feb-09 10:18S 36°50' E 174°46'0 0.0
2019-Feb-09 10:00S 36°50' E 174°46'0 0.0
2019-Feb-09 09:09S 36°50' E 174°46'0 0.0
2019-Feb-09 08:30S 36°50' E 174°46'0 0.0
2019-Feb-09 08:00S 36°50' E 174°46'0 0.0
2019-Feb-09 07:24S 36°50' E 174°46'0 0.0
2019-Feb-09 06:42S 36°50' E 174°46'0 0.0
2019-Feb-09 06:27S 36°50' E 174°46'0 0.0
2019-Feb-09 05:54S 36°50' E 174°46'0 0.0
2019-Feb-09 05:09S 36°50' E 174°46'0 0.0
2019-Feb-09 04:55S 36°50' E 174°46'0 0.0
2019-Feb-09 04:16S 36°50' E 174°46'0 0.0
2019-Feb-09 03:58S 36°50' E 174°46'0 0.0
2019-Feb-09 03:19S 36°50' E 174°46'0 0.0
2019-Feb-09 02:55S 36°50' E 174°46'0 0.0
2019-Feb-09 02:22S 36°50' E 174°46'0 0.0
2019-Feb-09 01:58S 36°50' E 174°46'0 0.0
2019-Feb-09 01:25S 36°50' E 174°46'0 0.0
2019-Feb-09 00:39S 36°50' E 174°46'0 0.0
2019-Feb-08 23:57S 36°50' E 174°46'0 0.0
2019-Feb-08 23:30S 36°50' E 174°46'0 0.0
2019-Feb-08 23:00S 36°50' E 174°46'0 0.0
2019-Feb-08 22:30S 36°50' E 174°46'0 0.0
2019-Feb-08 22:00S 36°50' E 174°46'0 0.0
2019-Feb-08 21:24S 36°50' E 174°46'0 0.0
2019-Feb-08 20:57S 36°50' E 174°46'0 0.0
2019-Feb-08 20:30S 36°50' E 174°46'0 0.0
2019-Feb-08 20:00S 36°50' E 174°46'0 0.0
2019-Feb-08 19:27S 36°50' E 174°46'0 0.0
2019-Feb-08 18:45S 36°50' E 174°46'0 0.0
2019-Feb-08 18:27S 36°51' E 174°46'0 0.0
2019-Feb-08 17:57S 36°51' E 174°46'0 0.0
2019-Feb-08 17:30S 36°50' E 174°46'0 0.0
2019-Feb-08 17:00S 36°50' E 174°46'0 0.0
2019-Feb-08 16:30S 36°50' E 174°46'0 0.0
2019-Feb-08 16:00S 36°51' E 174°46'0 0.0
2019-Feb-08 15:21S 36°50' E 174°46'0 0.0
2019-Feb-08 14:57S 36°50' E 174°46'0 0.0
2019-Feb-08 14:21S 36°50' E 174°46'0 0.0
2019-Feb-08 13:57S 36°50' E 174°46'0 0.0
2019-Feb-08 13:27S 36°50' E 174°46'0 0.0
2019-Feb-08 13:00S 36°50' E 174°46'0 0.0
2019-Feb-08 12:27S 36°50' E 174°46'0 0.0
2019-Feb-08 11:57S 36°50' E 174°46'0 0.0
2019-Feb-08 11:30S 36°50' E 174°46'0 0.0
2019-Feb-08 11:00S 36°50' E 174°46'0 0.0
2019-Feb-08 10:30S 36°50' E 174°46'0 0.0
2019-Feb-08 09:57S 36°50' E 174°46'0 0.0
2019-Feb-08 09:15S 36°50' E 174°46'0 0.0
2019-Feb-08 08:57S 36°50' E 174°46'0 0.0
2019-Feb-08 08:30S 36°50' E 174°46'0 0.0
2019-Feb-08 07:57S 36°51' E 174°46'0 0.0
2019-Feb-08 07:27S 36°50' E 174°46'0 0.0
2019-Feb-08 07:00S 36°51' E 174°46'0 0.0
2019-Feb-08 06:30S 36°50' E 174°46'0 0.0
2019-Feb-08 05:57S 36°50' E 174°46'0 0.0
2019-Feb-08 05:27S 36°50' E 174°46'0 0.0
2019-Feb-08 05:00S 36°50' E 174°46'0 0.0
2019-Feb-08 04:28S 36°50' E 174°46'0 0.0
2019-Feb-08 03:55S 36°50' E 174°46'0 0.0
2019-Feb-08 03:28S 36°50' E 174°46'0 0.0
2019-Feb-08 02:58S 36°50' E 174°46'0 0.0
2019-Feb-08 02:28S 36°50' E 174°46'0 0.0
2019-Feb-08 01:59S 36°50' E 174°46'0 0.0
2019-Feb-08 01:21S 36°50' E 174°46'0 0.0
2019-Feb-08 01:00S 36°50' E 174°46'0 0.0
2019-Feb-08 00:30S 36°50' E 174°46'0 0.0
2019-Feb-07 23:54S 36°50' E 174°46'0 0.0
2019-Feb-07 23:27S 36°50' E 174°46'0 0.0
2019-Feb-07 22:48S 36°50' E 174°46'0 0.0
2019-Feb-07 22:30S 36°50' E 174°46'0 0.0
2019-Feb-07 22:00S 36°50' E 174°46'0 0.0
2019-Feb-07 21:30S 36°50' E 174°46'0 0.0
2019-Feb-07 21:00S 36°50' E 174°46'0 0.0
2019-Feb-07 20:27S 36°50' E 174°46'0 0.0
2019-Feb-07 19:57S 36°50' E 174°46'0 0.0
2019-Feb-07 19:27S 36°50' E 174°46'0 0.0
2019-Feb-07 19:00S 36°50' E 174°46'0 0.0
2019-Feb-07 18:30S 36°51' E 174°46'0 0.0
2019-Feb-07 17:57S 36°50' E 174°46'0 0.0
2019-Feb-07 17:30S 36°50' E 174°46'0 0.0
2019-Feb-07 17:00S 36°50' E 174°46'0 0.0
2019-Feb-07 16:30S 36°50' E 174°46'0 0.0
2019-Feb-07 16:00S 36°51' E 174°46'0 0.0
2019-Feb-07 15:27S 36°50' E 174°46'0 0.0
2019-Feb-07 15:00S 36°50' E 174°46'0 0.0
2019-Feb-07 14:30S 36°50' E 174°46'0 0.0
2019-Feb-07 14:00S 36°50' E 174°46'0 0.0
2019-Feb-07 13:30S 36°50' E 174°46'0 0.0
2019-Feb-07 12:57S 36°50' E 174°46'0 0.0
2019-Feb-07 12:30S 36°50' E 174°46'0 0.0
2019-Feb-07 11:57S 36°50' E 174°46'0 0.0
2019-Feb-07 11:30S 36°50' E 174°46'0 0.0
2019-Feb-07 11:00S 36°50' E 174°46'0 0.0
2019-Feb-07 10:27S 36°50' E 174°46'0 0.0
2019-Feb-07 10:00S 36°50' E 174°46'0 0.0
2019-Feb-07 09:30S 36°50' E 174°46'0 0.0
2019-Feb-07 09:00S 36°50' E 174°46'0 0.0
2019-Feb-07 08:27S 36°50' E 174°46'0 0.0
2019-Feb-07 07:51S 36°51' E 174°46'0 0.0
2019-Feb-07 07:21S 36°51' E 174°46'0 0.0
2019-Feb-07 06:57S 36°51' E 174°46'0 0.0
2019-Feb-07 06:14S 36°50' E 174°46'0 0.0
2019-Feb-07 05:54S 36°50' E 174°46'0 0.0
2019-Feb-07 05:27S 36°50' E 174°46'0 0.0
2019-Feb-07 05:00S 36°50' E 174°46'0 0.0
2019-Feb-07 04:22S 36°50' E 174°46'0 0.0
2019-Feb-07 03:58S 36°50' E 174°46'0 0.0
2019-Feb-07 03:28S 36°50' E 174°46'0 0.0
2019-Feb-07 02:58S 36°50' E 174°46'0 0.0
2019-Feb-07 02:28S 36°50' E 174°46'0 0.0
2019-Feb-07 01:59S 36°50' E 174°46'0 0.0
2019-Feb-07 01:29S 36°50' E 174°46'0 0.0
2019-Feb-07 00:58S 36°50' E 174°46'0 0.0
2019-Feb-07 00:28S 36°50' E 174°46'0 0.0
2019-Feb-06 23:58S 36°50' E 174°46'0 0.0
2019-Feb-06 23:22S 36°50' E 174°46'0 0.0
2019-Feb-06 22:58S 36°51' E 174°46'0 0.0
2019-Feb-06 22:28S 36°50' E 174°46'0 0.0
2019-Feb-06 21:58S 36°50' E 174°46'0 0.0
2019-Feb-06 21:19S 36°50' E 174°46'0 0.0
2019-Feb-06 20:58S 36°50' E 174°46'0 0.0
2019-Feb-06 20:28S 36°50' E 174°46'0 0.0
2019-Feb-06 19:58S 36°50' E 174°46'0 0.0
2019-Feb-06 19:28S 36°50' E 174°46'0 0.0
2019-Feb-06 18:58S 36°51' E 174°46'0 0.0
2019-Feb-06 18:25S 36°51' E 174°46'0 0.0
2019-Feb-06 17:58S 36°50' E 174°46'0 0.0
2019-Feb-06 17:28S 36°51' E 174°46'0 0.0
2019-Feb-06 16:58S 36°50' E 174°46'0 0.0
2019-Feb-06 16:28S 36°50' E 174°46'0 0.0
2019-Feb-06 15:55S 36°51' E 174°46'0 0.0
2019-Feb-06 15:28S 36°50' E 174°46'0 0.0
2019-Feb-06 14:58S 36°50' E 174°46'0 0.0
2019-Feb-06 14:25S 36°50' E 174°46'0 0.0
2019-Feb-06 13:58S 36°50' E 174°46'0 0.0
2019-Feb-06 13:25S 36°50' E 174°46'0 0.0
2019-Feb-06 12:55S 36°50' E 174°46'0 0.0
2019-Feb-06 12:25S 36°50' E 174°46'0 0.0
2019-Feb-06 11:58S 36°50' E 174°46'0 0.0
2019-Feb-06 11:28S 36°51' E 174°46'0 0.0
2019-Feb-06 10:58S 36°50' E 174°46'0 0.0
2019-Feb-06 10:28S 36°50' E 174°46'0 0.0
2019-Feb-06 09:58S 36°50' E 174°46'0 0.0
2019-Feb-06 09:28S 36°50' E 174°46'0 0.0
2019-Feb-06 08:55S 36°50' E 174°46'0 0.0
2019-Feb-06 08:28S 36°50' E 174°46'0 0.0
2019-Feb-06 07:55S 36°50' E 174°46'0 0.0
2019-Feb-06 07:28S 36°50' E 174°46'0 0.1
2019-Feb-06 07:00S 36°50' E 174°46'2 4.1
2019-Feb-06 06:30S 36°50' E 174°48'3 6.0
2019-Feb-06 06:00S 36°47' E 174°48'4 7.7
2019-Feb-06 05:30S 36°43' E 174°50'4 7.6
2019-Feb-06 05:00S 36°40' E 174°51'3 7.0
2019-Feb-06 04:30S 36°36' E 174°52'4 7.2
2019-Feb-06 04:00S 36°33' E 174°52'4 8.2
2019-Feb-06 03:30S 36°29' E 174°54'4 8.4
2019-Feb-06 03:00S 36°25' E 174°55'4 8.1
2019-Feb-06 02:30S 36°21' E 174°55'  

Dump ship's entire track history